Time;durP1;ratioP1;P1;durP2;ratioP2;P2;SDS_P1;SDS_P2;PMS_P1;PMS_P2;Temp;Humidity;BMP_temperature;BMP_pressure;BME280_temperature;BME280_humidity;BME280_pressure;Samples;Min_cycle;Max_cycle;Signal;HPM_P1;HPM_P2
2021/09/12 00:00:45;;;;;;;15.88;10.70;;;;;;;;;;5013799;28;20069;-68
2021/09/12 00:03:12;;;;;;;12.18;8.45;;;;;;;;;;5004158;28;20081;-68
2021/09/12 00:05:39;;;;;;;15.30;9.93;;;;;;;;;;4994214;28;20050;-67
2021/09/12 00:08:07;;;;;;;13.40;9.23;;;;;;;;;;4994196;28;20054;-68
2021/09/12 00:10:34;;;;;;;12.90;9.68;;;;;;;;;;4994090;28;20051;-68
2021/09/12 00:13:03;;;;;;;14.63;8.63;;;;;;;;;;4996908;28;20416;-68
2021/09/12 00:15:30;;;;;;;11.93;9.15;;;;;;;;;;5013820;28;20054;-68
2021/09/12 00:17:57;;;;;;;13.68;8.88;;;;;;;;;;5013896;28;20085;-68
2021/09/12 00:20:24;;;;;;;13.52;8.98;;;;;;;;;;5013315;28;20096;-68
2021/09/12 00:22:51;;;;;;;14.73;9.30;;;;;;;;;;5013580;28;20408;-68
2021/09/12 00:25:20;;;;;;;25.88;13.93;;;;;;;;;;5013095;28;20054;-68
2021/09/12 00:27:47;;;;;;;19.60;9.88;;;;;;;;;;5013454;28;20053;-68
2021/09/12 00:30:14;;;;;;;17.33;11.10;;;;;;;;;;5013186;28;20141;-68
2021/09/12 00:32:41;;;;;;;14.88;9.38;;;;;;;;;;5012991;28;20053;-67
2021/09/12 00:35:10;;;;;;;13.38;9.43;;;;;;;;;;5012865;28;20049;-67
2021/09/12 00:37:37;;;;;;;12.48;8.35;;;;;;;;;;5013326;28;20526;-68
2021/09/12 00:40:05;;;;;;;14.35;9.25;;;;;;;;;;5004088;28;20050;-68
2021/09/12 00:42:34;;;;;;;15.93;10.50;;;;;;;;;;4993479;28;20061;-67
2021/09/12 00:45:01;;;;;;;15.93;11.30;;;;;;;;;;4993115;28;20500;-67
2021/09/12 00:47:28;;;;;;;19.13;14.27;;;;;;;;;;4993425;28;20054;-67
2021/09/12 00:49:55;;;;;;;14.18;10.00;;;;;;;;;;4993303;28;20053;-67
2021/09/12 00:52:24;;;;;;;17.80;11.48;;;;;;;;;;4993583;28;20046;-67
2021/09/12 00:54:51;;;;;;;12.05;8.30;;;;;;;;;;4993338;28;20058;-67
2021/09/12 00:57:19;;;;;;;12.20;8.13;;;;;;;;;;4993315;28;20408;-67
2021/09/12 00:59:49;;;;;;;11.98;8.07;;;;;;;;;;4993526;28;20065;-68
2021/09/12 01:02:18;;;;;;;12.82;8.77;;;;;;;;;;4995541;28;20096;-66
2021/09/12 01:04:46;;;;;;;14.70;9.10;;;;;;;;;;5012281;28;20046;-67
2021/09/12 01:07:14;;;;;;;12.73;8.63;;;;;;;;;;5012634;28;20060;-67
2021/09/12 01:09:41;;;;;;;12.82;8.82;;;;;;;;;;5012603;28;20046;-67
2021/09/12 01:12:10;;;;;;;14.18;8.93;;;;;;;;;;5012767;28;20054;-67
2021/09/12 01:14:38;;;;;;;12.88;8.80;;;;;;;;;;4996621;28;20129;-67
2021/09/12 01:17:07;;;;;;;13.63;8.93;;;;;;;;;;4992914;28;20051;-67
2021/09/12 01:19:34;;;;;;;14.18;8.70;;;;;;;;;;4992665;28;20057;-67
2021/09/12 01:22:03;;;;;;;14.18;8.75;;;;;;;;;;4993030;28;20046;-67
2021/09/12 01:24:33;;;;;;;12.10;8.25;;;;;;;;;;4992262;28;20053;-67
2021/09/12 01:27:01;;;;;;;11.65;8.40;;;;;;;;;;4992989;28;20054;-67
2021/09/12 01:29:27;;;;;;;15.27;8.52;;;;;;;;;;4992799;28;20503;-67
2021/09/12 01:31:54;;;;;;;12.05;8.48;;;;;;;;;;4992892;28;20054;-67
2021/09/12 01:34:21;;;;;;;11.98;8.55;;;;;;;;;;4992629;28;20054;-67
2021/09/12 01:36:48;;;;;;;11.32;8.18;;;;;;;;;;4992958;28;20503;-67
2021/09/12 01:39:15;;;;;;;12.60;8.07;;;;;;;;;;4992743;28;20050;-67
2021/09/12 01:41:44;;;;;;;13.52;9.43;;;;;;;;;;4992821;28;20496;-67
2021/09/12 01:44:11;;;;;;;12.65;8.65;;;;;;;;;;4992394;28;20050;-67
2021/09/12 01:46:46;;;;;;;11.00;8.07;;;;;;;;;;4992596;28;20085;-67
2021/09/12 01:49:13;;;;;;;12.93;8.43;;;;;;;;;;4992795;28;20054;-67
2021/09/12 01:51:40;;;;;;;11.93;8.48;;;;;;;;;;4992682;28;20523;-67
2021/09/12 01:54:07;;;;;;;12.95;8.40;;;;;;;;;;4992345;28;20130;-67
2021/09/12 01:56:34;;;;;;;11.75;8.07;;;;;;;;;;4992760;28;20054;-68
2021/09/12 01:59:02;;;;;;;13.35;8.55;;;;;;;;;;4992369;28;20051;-67
2021/09/12 02:01:29;;;;;;;12.05;8.27;;;;;;;;;;4992615;28;20051;-67
2021/09/12 02:03:56;;;;;;;11.38;7.68;;;;;;;;;;5008025;28;20054;-68
2021/09/12 02:06:23;;;;;;;12.18;8.10;;;;;;;;;;5012035;28;20085;-67
2021/09/12 02:08:50;;;;;;;12.48;8.30;;;;;;;;;;5012185;28;20403;-67
2021/09/12 02:11:17;;;;;;;12.35;8.40;;;;;;;;;;5011944;28;20053;-67
2021/09/12 02:13:43;;;;;;;13.93;9.52;;;;;;;;;;5003101;28;20058;-67
2021/09/12 02:16:12;;;;;;;15.07;9.32;;;;;;;;;;4992652;28;20050;-67
2021/09/12 02:18:39;;;;;;;13.73;9.40;;;;;;;;;;4992357;28;20050;-67
2021/09/12 02:21:06;;;;;;;14.85;8.77;;;;;;;;;;4992756;28;20049;-67
2021/09/12 02:23:33;;;;;;;14.75;9.32;;;;;;;;;;4992330;28;20050;-67
2021/09/12 02:26:00;;;;;;;13.02;9.18;;;;;;;;;;4992282;28;20046;-67
2021/09/12 02:28:27;;;;;;;15.02;9.88;;;;;;;;;;4992556;28;20046;-67
2021/09/12 02:30:54;;;;;;;16.38;10.50;;;;;;;;;;4992288;28;20076;-67
2021/09/12 02:33:22;;;;;;;14.48;10.30;;;;;;;;;;4992132;28;20129;-67
2021/09/12 02:35:49;;;;;;;15.13;9.50;;;;;;;;;;4993544;28;20492;-67
2021/09/12 02:38:16;;;;;;;14.32;9.30;;;;;;;;;;4996105;28;20050;-67
2021/09/12 02:40:43;;;;;;;13.43;9.55;;;;;;;;;;5010512;22;20040;-75
2021/09/12 02:43:11;;;;;;;12.38;9.18;;;;;;;;;;5015149;28;20050;-75
2021/09/12 02:45:38;;;;;;;14.77;9.95;;;;;;;;;;5015064;28;20042;-73
2021/09/12 02:48:05;;;;;;;13.10;9.60;;;;;;;;;;5015342;28;20407;-73
2021/09/12 02:50:34;;;;;;;13.85;9.45;;;;;;;;;;5015128;28;20060;-73
2021/09/12 02:53:00;;;;;;;13.07;9.80;;;;;;;;;;5015263;28;20062;-74
2021/09/12 02:55:28;;;;;;;13.48;9.45;;;;;;;;;;5015181;28;20064;-74
2021/09/12 02:57:55;;;;;;;15.18;9.82;;;;;;;;;;5015320;28;20491;-74
2021/09/12 03:00:21;;;;;;;15.88;10.13;;;;;;;;;;5014963;28;20050;-75
2021/09/12 03:02:48;;;;;;;15.35;10.65;;;;;;;;;;5015066;28;20060;-74
2021/09/12 03:05:15;;;;;;;15.15;10.65;;;;;;;;;;5015208;28;20046;-74
2021/09/12 03:07:44;;;;;;;17.60;10.32;;;;;;;;;;5015069;28;20049;-74
2021/09/12 03:10:12;;;;;;;15.90;10.60;;;;;;;;;;5014837;28;20054;-74
2021/09/12 03:12:39;;;;;;;14.60;9.88;;;;;;;;;;5015008;28;20058;-74
2021/09/12 03:15:07;;;;;;;15.40;11.07;;;;;;;;;;5014992;28;20534;-75
2021/09/12 03:17:34;;;;;;;16.25;10.77;;;;;;;;;;5014806;28;20046;-74
2021/09/12 03:20:01;;;;;;;14.80;10.40;;;;;;;;;;5014875;28;20060;-74
2021/09/12 03:22:28;;;;;;;14.68;10.35;;;;;;;;;;5014810;28;20407;-75
2021/09/12 03:24:56;;;;;;;13.90;9.98;;;;;;;;;;5014381;28;20053;-74
2021/09/12 03:27:23;;;;;;;15.40;10.55;;;;;;;;;;5014468;28;20058;-73
2021/09/12 03:29:51;;;;;;;13.90;9.43;;;;;;;;;;5014339;28;20518;-74
2021/09/12 03:32:17;;;;;;;15.05;10.65;;;;;;;;;;5014286;28;20115;-74
2021/09/12 03:34:44;;;;;;;13.48;9.95;;;;;;;;;;5014517;28;20073;-75
2021/09/12 03:37:11;;;;;;;12.57;9.65;;;;;;;;;;5014311;28;20061;-74
2021/09/12 03:39:38;;;;;;;14.25;9.70;;;;;;;;;;5013995;28;20050;-74
2021/09/12 03:42:07;;;;;;;12.13;8.55;;;;;;;;;;5014335;28;20049;-74
2021/09/12 03:44:34;;;;;;;13.25;8.65;;;;;;;;;;5014192;28;20057;-74
2021/09/12 03:47:01;;;;;;;11.95;8.45;;;;;;;;;;5013897;28;20060;-75
2021/09/12 03:49:28;;;;;;;11.75;7.38;;;;;;;;;;5013958;28;20054;-74
2021/09/12 03:51:55;;;;;;;14.32;8.98;;;;;;;;;;5013948;28;20392;-75
2021/09/12 03:54:22;;;;;;;11.43;8.18;;;;;;;;;;5013969;28;20072;-74
2021/09/12 03:56:48;;;;;;;13.68;8.80;;;;;;;;;;5013893;28;20042;-73
2021/09/12 03:59:17;;;;;;;9.77;7.47;;;;;;;;;;5013946;28;20499;-74
2021/09/12 04:01:44;;;;;;;11.95;7.82;;;;;;;;;;5013852;28;20050;-74
2021/09/12 04:04:11;;;;;;;10.82;7.40;;;;;;;;;;5013672;28;20045;-74
2021/09/12 04:06:38;;;;;;;10.73;7.80;;;;;;;;;;5013671;28;20418;-74
2021/09/12 04:09:05;;;;;;;10.75;7.82;;;;;;;;;;5013860;28;20065;-73
2021/09/12 04:11:31;;;;;;;13.43;8.43;;;;;;;;;;5013598;28;20046;-74
2021/09/12 04:13:58;;;;;;;11.30;7.60;;;;;;;;;;5013713;28;20410;-74
2021/09/12 04:16:27;;;;;;;12.70;8.15;;;;;;;;;;5013508;28;20042;-73
2021/09/12 04:18:54;;;;;;;13.15;9.32;;;;;;;;;;5013389;28;20054;-73
2021/09/12 04:21:20;;;;;;;13.30;9.25;;;;;;;;;;5013518;28;20056;-74
2021/09/12 04:23:47;;;;;;;12.10;9.35;;;;;;;;;;5013616;28;20053;-73
2021/09/12 04:26:14;;;;;;;14.15;9.13;;;;;;;;;;5013503;28;20058;-74
2021/09/12 04:28:41;;;;;;;10.68;7.50;;;;;;;;;;5013470;28;20128;-74
2021/09/12 04:31:08;;;;;;;11.23;8.15;;;;;;;;;;5012991;28;20506;-73
2021/09/12 04:33:36;;;;;;;9.90;7.28;;;;;;;;;;5013218;28;20090;-74
2021/09/12 04:36:04;;;;;;;10.98;6.75;;;;;;;;;;5013273;28;20526;-74
2021/09/12 04:38:31;;;;;;;10.07;7.03;;;;;;;;;;5013205;28;20057;-73
2021/09/12 04:40:57;;;;;;;10.00;6.90;;;;;;;;;;5012918;28;20058;-74
2021/09/12 04:43:24;;;;;;;10.10;7.03;;;;;;;;;;5012997;28;20054;-74
2021/09/12 04:45:51;;;;;;;14.38;7.65;;;;;;;;;;5013181;28;20419;-74
2021/09/12 04:48:18;;;;;;;11.48;7.88;;;;;;;;;;5013130;28;20415;-74
2021/09/12 04:50:46;;;;;;;13.77;8.00;;;;;;;;;;5012823;28;20049;-73
2021/09/12 04:53:13;;;;;;;10.77;7.20;;;;;;;;;;5012920;28;20057;-73
2021/09/12 04:55:40;;;;;;;12.05;7.97;;;;;;;;;;5012840;28;20060;-75
2021/09/12 04:58:07;;;;;;;10.48;7.30;;;;;;;;;;5012021;28;20060;-73
2021/09/12 05:00:34;;;;;;;10.40;6.85;;;;;;;;;;5012972;28;20050;-74
2021/09/12 05:03:01;;;;;;;11.38;8.48;;;;;;;;;;5013092;28;20132;-73
2021/09/12 05:05:28;;;;;;;12.15;8.70;;;;;;;;;;5012862;28;20057;-74
2021/09/12 05:07:56;;;;;;;13.25;9.23;;;;;;;;;;5012617;28;20392;-73
2021/09/12 05:10:24;;;;;;;13.13;8.82;;;;;;;;;;5012803;28;20058;-73
2021/09/12 05:12:51;;;;;;;12.85;9.40;;;;;;;;;;5012589;28;20490;-74
2021/09/12 05:15:18;;;;;;;20.70;14.27;;;;;;;;;;5012748;28;20064;-74
2021/09/12 05:17:45;;;;;;;19.35;12.60;;;;;;;;;;5012511;28;20499;-74
2021/09/12 05:20:13;;;;;;;14.23;9.63;;;;;;;;;;5012461;28;20046;-74
2021/09/12 05:22:40;;;;;;;13.85;9.35;;;;;;;;;;5012372;28;20107;-73
2021/09/12 05:25:09;;;;;;;12.68;9.77;;;;;;;;;;5013413;28;20487;-76
2021/09/12 05:27:36;;;;;;;13.07;8.77;;;;;;;;;;5012635;28;20414;-76
2021/09/12 05:30:04;;;;;;;13.98;9.43;;;;;;;;;;5013007;28;20279;-78
2021/09/12 05:32:31;;;;;;;13.05;9.32;;;;;;;;;;5012137;28;20049;-76
2021/09/12 05:34:58;;;;;;;13.23;9.60;;;;;;;;;;5012393;28;20056;-75
2021/09/12 05:37:25;;;;;;;13.13;9.57;;;;;;;;;;5012385;28;20499;-76
2021/09/12 05:39:52;;;;;;;15.23;10.32;;;;;;;;;;5013519;28;20060;-76
2021/09/12 05:42:20;;;;;;;13.80;9.52;;;;;;;;;;5014616;28;20050;-77
2021/09/12 05:44:47;;;;;;;13.93;10.35;;;;;;;;;;5014598;28;20056;-77
2021/09/12 05:47:14;;;;;;;13.00;9.45;;;;;;;;;;5014281;28;20054;-76
2021/09/12 05:49:41;;;;;;;13.63;9.48;;;;;;;;;;5014320;28;20172;-77
2021/09/12 05:52:10;;;;;;;14.35;9.35;;;;;;;;;;5013314;28;20056;-77
2021/09/12 05:54:36;;;;;;;15.50;9.70;;;;;;;;;;5013559;28;20104;-75
2021/09/12 05:57:04;;;;;;;14.00;9.45;;;;;;;;;;5013214;28;20054;-77
2021/09/12 05:59:32;;;;;;;13.23;9.45;;;;;;;;;;5013184;28;20057;-76
2021/09/12 06:01:59;;;;;;;15.70;10.82;;;;;;;;;;5013138;28;20056;-76
2021/09/12 06:04:26;;;;;;;15.95;10.82;;;;;;;;;;4993485;28;20057;-77
2021/09/12 06:06:53;;;;;;;14.57;8.80;;;;;;;;;;4992969;28;20149;-74
2021/09/12 06:09:20;;;;;;;14.60;9.98;;;;;;;;;;4992547;28;20061;-74
2021/09/12 06:11:47;;;;;;;14.70;10.32;;;;;;;;;;4996215;28;20090;-74
2021/09/12 06:14:14;;;;;;;14.45;10.07;;;;;;;;;;5008486;28;20419;-74
2021/09/12 06:16:42;;;;;;;12.50;8.43;;;;;;;;;;5015805;28;20056;-73
2021/09/12 06:19:12;;;;;;;28.75;19.63;;;;;;;;;;5015568;28;20519;-74
2021/09/12 06:21:39;;;;;;;31.63;21.63;;;;;;;;;;5016372;28;20144;-74
2021/09/12 06:24:06;;;;;;;29.80;18.55;;;;;;;;;;5015836;28;20050;-73
2021/09/12 06:26:33;;;;;;;15.98;10.02;;;;;;;;;;5015947;28;20689;-73
2021/09/12 06:29:00;;;;;;;27.85;17.88;;;;;;;;;;5016071;28;20050;-73
2021/09/12 06:31:28;;;;;;;16.40;10.82;;;;;;;;;;5016378;28;20068;-74
2021/09/12 06:33:56;;;;;;;16.48;10.40;;;;;;;;;;5015676;28;20062;-75
2021/09/12 06:36:23;;;;;;;15.93;10.98;;;;;;;;;;5015629;28;20054;-73
2021/09/12 06:38:50;;;;;;;15.85;9.90;;;;;;;;;;5015830;28;20049;-73
2021/09/12 06:41:17;;;;;;;15.18;9.95;;;;;;;;;;5015406;28;20050;-75
2021/09/12 06:43:44;;;;;;;18.63;12.35;;;;;;;;;;5015762;28;20057;-76
2021/09/12 06:46:11;;;;;;;21.40;13.68;;;;;;;;;;5015783;28;20049;-75
2021/09/12 06:48:38;;;;;;;17.92;11.68;;;;;;;;;;5015548;28;20125;-75
2021/09/12 06:51:06;;;;;;;16.30;10.40;;;;;;;;;;5015380;28;20399;-76
2021/09/12 06:53:33;;;;;;;17.83;11.82;;;;;;;;;;5015436;28;20050;-76
2021/09/12 06:56:00;;;;;;;16.77;10.60;;;;;;;;;;5015322;28;20533;-74
2021/09/12 06:58:27;;;;;;;17.58;10.60;;;;;;;;;;5015420;28;20046;-75
2021/09/12 07:00:56;;;;;;;17.85;11.38;;;;;;;;;;5015645;28;20089;-75
2021/09/12 07:03:23;;;;;;;15.77;10.30;;;;;;;;;;5003502;28;20145;-76
2021/09/12 07:05:50;;;;;;;20.17;11.40;;;;;;;;;;4996102;28;20392;-77
2021/09/12 07:08:18;;;;;;;17.98;12.38;;;;;;;;;;4996096;28;20058;-76
2021/09/12 07:10:46;;;;;;;19.92;10.60;;;;;;;;;;4995838;28;20057;-75
2021/09/12 07:13:13;;;;;;;14.20;8.88;;;;;;;;;;4995686;28;20169;-74
2021/09/12 07:15:40;;;;;;;17.95;10.25;;;;;;;;;;4995780;28;20134;-74
2021/09/12 07:18:07;;;;;;;14.60;9.93;;;;;;;;;;4995785;28;20492;-76
2021/09/12 07:20:34;;;;;;;18.38;10.52;;;;;;;;;;4995749;28;20505;-75
2021/09/12 07:23:01;;;;;;;15.68;10.00;;;;;;;;;;4995011;28;20073;-76
2021/09/12 07:25:30;;;;;;;18.40;9.98;;;;;;;;;;4995794;28;20058;-75
2021/09/12 07:27:57;;;;;;;19.13;9.60;;;;;;;;;;4995347;28;20140;-75
2021/09/12 07:30:24;;;;;;;17.15;10.88;;;;;;;;;;4995366;28;20393;-75
2021/09/12 07:32:52;;;;;;;16.45;11.13;;;;;;;;;;4995306;28;20054;-76
2021/09/12 07:35:19;;;;;;;15.52;9.73;;;;;;;;;;4995319;28;20483;-76
2021/09/12 07:37:46;;;;;;;17.40;10.77;;;;;;;;;;4995629;28;20054;-77
2021/09/12 07:40:13;;;;;;;18.17;10.55;;;;;;;;;;4997314;28;20060;-73
2021/09/12 07:42:42;;;;;;;15.27;9.35;;;;;;;;;;4994886;28;20113;-74
2021/09/12 07:45:10;;;;;;;16.42;10.20;;;;;;;;;;4995034;28;20507;-72
2021/09/12 07:47:36;;;;;;;18.50;11.30;;;;;;;;;;4994971;28;20054;-73
2021/09/12 07:50:04;;;;;;;21.58;10.80;;;;;;;;;;4994849;28;20050;-73
2021/09/12 07:52:31;;;;;;;19.92;13.52;;;;;;;;;;4994927;28;20058;-73
2021/09/12 07:54:58;;;;;;;18.25;11.95;;;;;;;;;;4994656;28;20053;-73
2021/09/12 07:57:25;;;;;;;21.15;11.73;;;;;;;;;;4994858;28;20054;-73
2021/09/12 07:59:53;;;;;;;17.45;11.15;;;;;;;;;;4994423;28;20381;-73
2021/09/12 08:02:20;;;;;;;17.80;11.75;;;;;;;;;;4994750;28;20054;-75
2021/09/12 08:04:47;;;;;;;15.70;9.80;;;;;;;;;;4994473;28;20415;-75
2021/09/12 08:07:14;;;;;;;15.48;11.02;;;;;;;;;;4994479;28;20050;-75
2021/09/12 08:09:41;;;;;;;25.60;17.95;;;;;;;;;;4994205;28;20056;-75
2021/09/12 08:12:08;;;;;;;17.58;12.52;;;;;;;;;;4994399;28;20061;-74
2021/09/12 08:14:35;;;;;;;15.18;10.55;;;;;;;;;;4994097;28;20182;-75
2021/09/12 08:17:04;;;;;;;13.95;8.55;;;;;;;;;;4994615;28;20142;-75
2021/09/12 08:19:31;;;;;;;14.65;8.63;;;;;;;;;;4994583;28;20066;-75
2021/09/12 08:21:58;;;;;;;14.95;9.05;;;;;;;;;;4994408;28;20057;-75
2021/09/12 08:24:24;;;;;;;13.55;8.45;;;;;;;;;;4994800;28;20503;-74
2021/09/12 08:26:52;;;;;;;22.00;14.38;;;;;;;;;;4994533;28;20054;-74
2021/09/12 08:29:18;;;;;;;17.05;9.98;;;;;;;;;;4994182;28;20104;-74
2021/09/12 08:31:45;;;;;;;16.50;11.02;;;;;;;;;;4993865;28;20046;-74
2021/09/12 08:34:14;;;;;;;19.20;13.93;;;;;;;;;;4993836;28;20046;-74
2021/09/12 08:36:41;;;;;;;14.98;9.18;;;;;;;;;;4994046;28;20064;-74
2021/09/12 08:39:09;;;;;;;15.43;9.30;;;;;;;;;;4993673;28;20073;-74
2021/09/12 08:41:36;;;;;;;11.70;7.80;;;;;;;;;;5018428;22;20057;-69
2021/09/12 08:44:03;;;;;;;15.30;10.18;;;;;;;;;;5032804;28;20417;-71
2021/09/12 08:46:30;;;;;;;16.30;11.10;;;;;;;;;;5033061;28;20068;-67
2021/09/12 08:48:57;;;;;;;14.57;10.65;;;;;;;;;;5032667;28;20490;-68
2021/09/12 08:51:25;;;;;;;14.75;9.40;;;;;;;;;;5032762;28;20057;-69
2021/09/12 08:53:52;;;;;;;19.08;13.82;;;;;;;;;;5032420;28;20053;-69
2021/09/12 08:56:19;;;;;;;25.33;19.02;;;;;;;;;;5032635;28;20056;-69
2021/09/12 08:58:46;;;;;;;14.82;9.75;;;;;;;;;;5032544;28;20083;-69
2021/09/12 09:01:14;;;;;;;18.02;11.98;;;;;;;;;;5032837;28;20417;-70
2021/09/12 09:03:42;;;;;;;15.95;10.98;;;;;;;;;;5018999;28;20050;-69
2021/09/12 09:06:14;;;;;;;13.65;9.27;;;;;;;;;;5012549;28;20084;-69
2021/09/12 09:08:54;;;;;;;15.30;9.25;;;;;;;;;;4995023;28;20137;-69
2021/09/12 09:11:32;;;;;;;13.57;8.43;;;;;;;;;;4993570;28;20459;-69
2021/09/12 09:14:13;;;;;;;16.10;9.82;;;;;;;;;;5003185;28;20058;-69
2021/09/12 09:16:40;;;;;;;13.75;10.40;;;;;;;;;;5012685;28;20140;-69
2021/09/12 09:19:08;;;;;;;13.10;9.07;;;;;;;;;;5012552;28;20053;-69
2021/09/12 09:21:37;;;;;;;13.90;10.18;;;;;;;;;;5012594;28;20430;-69
2021/09/12 09:24:11;;;;;;;12.07;9.18;;;;;;;;;;5012486;28;20068;-69
2021/09/12 09:26:39;;;;;;;13.82;9.68;;;;;;;;;;5012481;28;20446;-69
2021/09/12 09:29:06;;;;;;;14.00;8.90;;;;;;;;;;5012208;28;20518;-69
2021/09/12 09:31:33;;;;;;;14.82;9.10;;;;;;;;;;5012467;28;20054;-68
2021/09/12 09:34:17;;;;;;;12.43;8.23;;;;;;;;;;5012180;28;20064;-68
2021/09/12 09:36:52;;;;;;;11.75;8.93;;;;;;;;;;5012284;28;20058;-69
2021/09/12 09:39:36;;;;;;;11.35;7.55;;;;;;;;;;5013346;28;20050;-69
2021/09/12 09:42:03;;;;;;;12.02;8.07;;;;;;;;;;5012405;28;20049;-68
2021/09/12 09:44:30;;;;;;;12.98;9.32;;;;;;;;;;5011854;28;20053;-68
2021/09/12 09:47:09;;;;;;;12.30;8.63;;;;;;;;;;5012255;28;20479;-68
2021/09/12 09:49:37;;;;;;;13.13;7.80;;;;;;;;;;5012213;28;20507;-69
2021/09/12 09:52:05;;;;;;;12.18;7.68;;;;;;;;;;5007035;28;20058;-69
2021/09/12 09:54:34;;;;;;;14.13;9.20;;;;;;;;;;4993284;28;20058;-68
2021/09/12 09:57:05;;;;;;;13.45;7.97;;;;;;;;;;4993162;28;20057;-69
2021/09/12 09:59:32;;;;;;;12.20;8.65;;;;;;;;;;4993623;28;20054;-70
2021/09/12 10:01:59;;;;;;;18.95;14.93;;;;;;;;;;4992818;28;20474;-67
2021/09/12 10:04:28;;;;;;;13.50;9.85;;;;;;;;;;4992413;28;20042;-69
2021/09/12 10:07:01;;;;;;;16.27;11.75;;;;;;;;;;4992463;28;20096;-69
2021/09/12 10:09:30;;;;;;;13.18;8.88;;;;;;;;;;4993849;28;20130;-69
2021/09/12 10:12:00;;;;;;;13.32;9.23;;;;;;;;;;4993285;28;20054;-68
2021/09/12 10:14:30;;;;;;;11.48;9.23;;;;;;;;;;5007208;28;20050;-68
2021/09/12 10:17:00;;;;;;;11.18;8.35;;;;;;;;;;5012066;28;20087;-68
2021/09/12 10:19:35;;;;;;;12.60;8.52;;;;;;;;;;5012293;28;20054;-70
2021/09/12 10:22:08;;;;;;;11.32;8.00;;;;;;;;;;5011951;28;20411;-69
2021/09/12 10:24:35;;;;;;;11.48;8.02;;;;;;;;;;5012000;28;20053;-69
2021/09/12 10:27:33;;;;;;;10.35;6.95;;;;;;;;;;5011945;28;20046;-69
2021/09/12 10:30:18;;;;;;;10.82;8.10;;;;;;;;;;5012109;28;20414;-69
2021/09/12 10:32:45;;;;;;;12.38;8.27;;;;;;;;;;5012064;28;20065;-69
2021/09/12 10:35:18;;;;;;;10.45;7.88;;;;;;;;;;5011845;28;20066;-69
2021/09/12 10:37:57;;;;;;;11.32;8.02;;;;;;;;;;5011557;28;20050;-69
2021/09/12 10:40:24;;;;;;;10.57;7.97;;;;;;;;;;5000261;28;20463;-69
2021/09/12 10:42:51;;;;;;;11.07;8.00;;;;;;;;;;4992368;28;20474;-70
2021/09/12 10:45:23;;;;;;;11.85;7.68;;;;;;;;;;4994595;28;20073;-69
2021/09/12 10:47:51;;;;;;;10.32;7.80;;;;;;;;;;4992152;28;20053;-70
2021/09/12 10:50:45;;;;;;;10.00;7.30;;;;;;;;;;4991707;28;20050;-69
2021/09/12 10:53:13;;;;;;;11.43;8.05;;;;;;;;;;4989479;28;20054;-69
2021/09/12 10:56:00;;;;;;;9.35;7.05;;;;;;;;;;4992164;28;20057;-69
2021/09/12 10:58:27;;;;;;;10.63;6.72;;;;;;;;;;4995618;28;20077;-69
2021/09/12 11:00:57;;;;;;;9.85;7.57;;;;;;;;;;4995675;28;20125;-68
2021/09/12 11:03:24;;;;;;;10.25;7.43;;;;;;;;;;5006265;28;20049;-70
2021/09/12 11:05:51;;;;;;;12.75;7.47;;;;;;;;;;5015328;28;20054;-69
2021/09/12 11:08:18;;;;;;;11.27;7.43;;;;;;;;;;5015185;28;20065;-71
2021/09/12 11:10:50;;;;;;;10.35;6.93;;;;;;;;;;5015217;28;20058;-72
2021/09/12 11:13:24;;;;;;;10.93;7.55;;;;;;;;;;5014977;28;20057;-71
2021/09/12 11:15:51;;;;;;;18.10;7.88;;;;;;;;;;5015267;28;20466;-67
2021/09/12 11:18:19;;;;;;;9.68;7.15;;;;;;;;;;5015040;28;20050;-69
2021/09/12 11:20:49;;;;;;;13.30;7.53;;;;;;;;;;5014388;28;20081;-69
2021/09/12 11:23:30;;;;;;;20.40;14.20;;;;;;;;;;5014878;28;20405;-67
2021/09/12 11:25:58;;;;;;;12.75;8.93;;;;;;;;;;5014646;28;20046;-71
2021/09/12 11:28:27;;;;;;;12.80;8.00;;;;;;;;;;5014912;28;20054;-66
2021/09/12 11:30:54;;;;;;;12.80;8.15;;;;;;;;;;5014583;28;20423;-65
2021/09/12 11:33:23;;;;;;;9.38;7.28;;;;;;;;;;5014620;28;20570;-65
2021/09/12 11:35:59;;;;;;;11.27;7.40;;;;;;;;;;5014393;28;20054;-63
2021/09/12 11:38:28;;;;;;;9.25;7.72;;;;;;;;;;5015059;28;20066;-64
2021/09/12 11:40:58;;;;;;;8.70;6.75;;;;;;;;;;5014329;28;20124;-64
2021/09/12 11:43:26;;;;;;;11.52;9.13;;;;;;;;;;5014337;28;20054;-63
2021/09/12 11:46:05;;;;;;;8.75;6.70;;;;;;;;;;5014275;28;20064;-63
2021/09/12 11:48:33;;;;;;;9.95;7.40;;;;;;;;;;5015212;28;20053;-73
2021/09/12 11:51:00;;;;;;;9.80;6.80;;;;;;;;;;5014329;28;20422;-66
2021/09/12 11:53:27;;;;;;;9.13;6.85;;;;;;;;;;5014358;28;20045;-66
2021/09/12 11:55:54;;;;;;;9.95;6.82;;;;;;;;;;5014311;28;20400;-66
2021/09/12 11:58:24;;;;;;;7.60;6.50;;;;;;;;;;5014435;28;20061;-67
2021/09/12 12:00:51;;;;;;;9.68;6.80;;;;;;;;;;5014329;28;20066;-66
2021/09/12 12:03:27;;;;;;;9.75;6.57;;;;;;;;;;5003184;28;20106;-67
2021/09/12 12:05:58;;;;;;;7.85;6.35;;;;;;;;;;4994491;28;20054;-68
2021/09/12 12:08:25;;;;;;;8.90;6.97;;;;;;;;;;4994014;28;20054;-67
2021/09/12 12:10:52;;;;;;;8.23;6.00;;;;;;;;;;4994174;28;20054;-66
2021/09/12 12:13:29;;;;;;;9.57;6.85;;;;;;;;;;4999400;28;20048;-67
2021/09/12 12:16:00;;;;;;;11.43;6.70;;;;;;;;;;5013758;28;20064;-67
2021/09/12 12:18:26;;;;;;;;;;;;;;;;;;5015160;28;20550;-66
2021/09/12 12:20:56;;;;;;;9.30;6.72;;;;;;;;;;5013719;28;19928;-70
2021/09/12 12:23:25;;;;;;;10.40;6.85;;;;;;;;;;5013491;28;20049;-68
2021/09/12 12:25:54;;;;;;;11.13;6.13;;;;;;;;;;5013593;28;20062;-67
2021/09/12 12:28:25;;;;;;;8.90;6.23;;;;;;;;;;5013610;28;20062;-69
2021/09/12 12:31:10;;;;;;;9.25;6.25;;;;;;;;;;5013683;28;20345;-69
2021/09/12 12:33:38;;;;;;;8.90;6.38;;;;;;;;;;5013304;28;20054;-69
2021/09/12 12:36:09;;;;;;;10.30;6.40;;;;;;;;;;5013597;28;20057;-69
2021/09/12 12:38:40;;;;;;;9.40;6.05;;;;;;;;;;5013296;28;20058;-69
2021/09/12 12:41:07;;;;;;;9.00;5.88;;;;;;;;;;5013231;28;20534;-69
2021/09/12 12:43:34;;;;;;;7.90;5.60;;;;;;;;;;5013787;28;20049;-68
2021/09/12 12:46:02;;;;;;;8.02;5.85;;;;;;;;;;5013322;28;20411;-69
2021/09/12 12:48:29;;;;;;;8.95;5.85;;;;;;;;;;5012861;28;20414;-69
2021/09/12 12:50:56;;;;;;;7.20;5.07;;;;;;;;;;5012953;28;20491;-68
2021/09/12 12:53:28;;;;;;;6.97;5.22;;;;;;;;;;5012731;28;20054;-68
2021/09/12 12:55:57;;;;;;;7.80;5.65;;;;;;;;;;5013065;28;20061;-68
2021/09/12 12:58:25;;;;;;;8.30;4.88;;;;;;;;;;5012633;28;20054;-68
2021/09/12 13:00:53;;;;;;;10.98;6.53;;;;;;;;;;5012911;28;20495;-69
2021/09/12 13:03:20;;;;;;;9.25;5.60;;;;;;;;;;5002104;28;20046;-69
2021/09/12 13:05:48;;;;;;;8.05;5.78;;;;;;;;;;4993403;28;20416;-68
2021/09/12 13:08:19;;;;;;;7.03;4.97;;;;;;;;;;4993399;28;20061;-69
2021/09/12 13:10:47;;;;;;;6.95;5.13;;;;;;;;;;4993404;28;20062;-69
2021/09/12 13:13:16;;;;;;;6.40;5.22;;;;;;;;;;4997330;28;20046;-69
2021/09/12 13:15:42;;;;;;;6.00;4.82;;;;;;;;;;5012963;28;20058;-69
2021/09/12 13:18:12;;;;;;;6.82;5.22;;;;;;;;;;5012494;28;20065;-69
2021/09/12 13:20:40;;;;;;;6.93;5.07;;;;;;;;;;5011962;28;20053;-69
2021/09/12 13:23:07;;;;;;;7.20;5.32;;;;;;;;;;5012562;28;20053;-69
2021/09/12 13:25:34;;;;;;;7.97;5.60;;;;;;;;;;5012880;28;20419;-69
2021/09/12 13:28:03;;;;;;;8.45;5.85;;;;;;;;;;5012488;28;20049;-69
2021/09/12 13:30:31;;;;;;;7.25;5.80;;;;;;;;;;5013264;28;20085;-68
2021/09/12 13:32:59;;;;;;;7.25;5.85;;;;;;;;;;5012466;28;20422;-67
2021/09/12 13:35:26;;;;;;;7.88;5.90;;;;;;;;;;5012749;28;20591;-69
2021/09/12 13:37:54;;;;;;;7.50;6.07;;;;;;;;;;5012106;28;20069;-68
2021/09/12 13:40:21;;;;;;;7.53;5.68;;;;;;;;;;5012598;28;20053;-68
2021/09/12 13:42:48;;;;;;;8.50;5.38;;;;;;;;;;5012378;28;20407;-68
2021/09/12 13:45:17;;;;;;;6.97;5.32;;;;;;;;;;5011975;28;20487;-68
2021/09/12 13:47:44;;;;;;;6.95;4.90;;;;;;;;;;5012235;28;20092;-69
2021/09/12 13:50:13;;;;;;;8.20;5.30;;;;;;;;;;5012462;28;20349;-68
2021/09/12 13:52:40;;;;;;;6.78;4.38;;;;;;;;;;5012087;28;20418;-69
2021/09/12 13:55:08;;;;;;;6.10;5.15;;;;;;;;;;5012081;28;20492;-69
2021/09/12 13:57:36;;;;;;;7.30;5.65;;;;;;;;;;5012155;28;20396;-69
2021/09/12 14:00:03;;;;;;;6.53;4.68;;;;;;;;;;5012127;28;20495;-69
2021/09/12 14:02:31;;;;;;;6.38;5.10;;;;;;;;;;5008207;28;20056;-69
2021/09/12 14:04:58;;;;;;;7.25;5.30;;;;;;;;;;4992145;28;20393;-70
2021/09/12 14:07:28;;;;;;;8.13;5.28;;;;;;;;;;4993147;28;20061;-68
2021/09/12 14:09:55;;;;;;;;;;;;;;;;;;4993109;28;20046;-69
2021/09/12 14:12:23;;;;;;;7.22;4.25;;;;;;;;;;4992416;28;20298;-70
2021/09/12 14:14:50;;;;;;;7.95;4.72;;;;;;;;;;5009573;28;20054;-69
2021/09/12 14:17:17;;;;;;;6.47;5.20;;;;;;;;;;5011980;28;20053;-69
2021/09/12 14:19:45;;;;;;;7.35;5.00;;;;;;;;;;5012037;28;20050;-69
2021/09/12 14:22:12;;;;;;;5.35;4.60;;;;;;;;;;5012052;28;20050;-68
2021/09/12 14:24:39;;;;;;;5.93;4.32;;;;;;;;;;5011691;28;20096;-69
2021/09/12 14:27:06;;;;;;;6.18;4.97;;;;;;;;;;5012449;28;20046;-69
2021/09/12 14:29:33;;;;;;;6.68;5.05;;;;;;;;;;5011816;28;20046;-69
2021/09/12 14:32:01;;;;;;;6.00;4.90;;;;;;;;;;5015333;28;20045;-69
2021/09/12 14:34:28;;;;;;;6.00;4.70;;;;;;;;;;5015916;28;20058;-69
2021/09/12 14:36:56;;;;;;;5.15;4.43;;;;;;;;;;5015698;28;20094;-68